createdAt,value
2023-04-16T00:03:34.734Z,5.32
2023-04-16T00:08:36.175Z,5.88
2023-04-16T00:13:36.510Z,4.05
2023-04-16T00:18:36.103Z,8.45
2023-04-16T00:23:39.237Z,5.85
2023-04-16T00:28:39.576Z,5.75
2023-04-16T00:33:42.162Z,8.98
2023-04-16T00:38:40.988Z,6.90
2023-04-16T00:43:40.566Z,6.60
2023-04-16T00:48:40.427Z,9.07
2023-04-16T00:53:40.680Z,4.20
2023-04-16T00:58:40.267Z,3.97
2023-04-16T01:03:48.780Z,7.18
2023-04-16T01:08:47.908Z,5.47
2023-04-16T01:13:49.819Z,2.35
2023-04-16T01:18:58.348Z,8.43
2023-04-16T01:24:04.053Z,4.20
2023-04-16T01:29:03.683Z,4.65
2023-04-16T01:34:03.987Z,3.85
2023-04-16T01:39:03.609Z,3.63
2023-04-16T01:44:04.526Z,5.55
2023-04-16T01:49:05.744Z,5.05
2023-04-16T01:54:05.739Z,4.00
2023-04-16T01:59:05.133Z,4.43
2023-04-16T02:04:11.232Z,4.47
2023-04-16T02:09:11.054Z,8.02
2023-04-16T02:14:14.805Z,7.00
2023-04-16T02:19:15.192Z,6.97
2023-04-16T02:24:17.331Z,4.22
2023-04-16T02:29:30.642Z,7.25
2023-04-16T02:34:41.881Z,5.55
2023-04-16T02:39:43.142Z,4.63
2023-04-16T02:44:42.693Z,7.32
2023-04-16T02:49:42.943Z,6.53
2023-04-16T02:54:42.524Z,6.85
2023-04-16T02:59:42.210Z,5.65
2023-04-16T03:04:41.747Z,4.80
2023-04-16T03:09:41.702Z,8.88
2023-04-16T03:14:55.676Z,9.82
2023-04-16T03:19:57.966Z,8.27
2023-04-16T03:24:56.856Z,9.77
2023-04-16T03:29:56.276Z,10.63
2023-04-16T03:34:59.717Z,8.27
2023-04-16T03:39:59.757Z,7.85
2023-04-16T03:44:59.776Z,10.70
2023-04-16T03:49:59.701Z,10.02
2023-04-16T03:54:59.933Z,7.55
2023-04-16T04:00:03.784Z,9.00
2023-04-16T04:05:16.007Z,7.75
2023-04-16T04:10:16.670Z,6.57
2023-04-16T04:15:17.831Z,10.27
2023-04-16T04:20:17.466Z,11.18
2023-04-16T04:25:19.915Z,4.53
2023-04-16T04:30:20.759Z,7.93
2023-04-16T04:35:20.673Z,6.15
2023-04-16T04:40:23.411Z,11.55
2023-04-16T04:45:27.409Z,7.32
2023-04-16T04:50:27.898Z,8.15
2023-04-16T04:55:27.111Z,10.60
2023-04-16T05:00:27.625Z,13.60
2023-04-16T05:05:28.388Z,9.23
2023-04-16T05:10:30.333Z,10.13
2023-04-16T05:15:32.965Z,13.23
2023-04-16T05:20:35.857Z,9.32
2023-04-16T05:25:34.458Z,9.50
2023-04-16T05:30:38.375Z,8.65
2023-04-16T05:40:40.150Z,10.88
2023-04-16T05:45:41.496Z,11.95
2023-04-16T05:50:40.441Z,12.65
2023-04-16T05:55:42.522Z,8.25
2023-04-16T06:00:42.042Z,11.55
2023-04-16T06:05:41.443Z,11.30
2023-04-16T06:10:41.534Z,14.25
2023-04-16T06:15:40.081Z,10.45
2023-04-16T06:20:38.842Z,11.52
2023-04-16T06:25:37.241Z,13.52
2023-04-16T06:30:36.007Z,8.63
2023-04-16T06:35:36.137Z,11.57
2023-04-16T06:40:37.202Z,13.25
2023-04-16T06:45:36.002Z,11.65
2023-04-16T06:50:35.110Z,8.77
2023-04-16T06:55:34.307Z,7.70
2023-04-16T07:00:33.114Z,19.50
2023-04-16T07:05:31.008Z,11.77
2023-04-16T07:10:38.835Z,15.10
2023-04-16T07:15:37.766Z,13.60
2023-04-16T07:20:36.886Z,10.70
2023-04-16T07:25:38.668Z,10.10
2023-04-16T07:30:37.679Z,15.25
2023-04-16T07:35:36.268Z,16.67
2023-04-16T07:40:37.234Z,10.48
2023-04-16T07:45:38.004Z,8.75
2023-04-16T07:50:36.934Z,12.82
2023-04-16T07:55:35.557Z,17.73
2023-04-16T08:00:35.930Z,18.23
2023-04-16T08:05:36.869Z,8.48
2023-04-16T08:10:39.043Z,11.32
2023-04-16T08:15:42.332Z,12.15
2023-04-16T08:20:43.663Z,10.63
2023-04-16T08:25:51.833Z,12.13
2023-04-16T08:30:52.404Z,10.63
2023-04-16T08:35:51.973Z,11.65
2023-04-16T08:41:25.136Z,12.38
2023-04-16T08:46:27.480Z,10.70
2023-04-16T08:52:24.485Z,11.98
2023-04-16T08:57:24.625Z,5.80
2023-04-16T09:02:26.519Z,7.82
2023-04-16T09:07:29.496Z,13.10
2023-04-16T09:12:31.323Z,16.00
2023-04-16T09:24:27.141Z,16.17
2023-04-16T09:29:45.090Z,11.98
2023-04-16T09:35:21.920Z,8.35
2023-04-16T09:40:28.900Z,10.18
2023-04-16T09:51:58.472Z,7.68
2023-04-16T09:57:12.949Z,8.23
2023-04-16T10:02:18.990Z,10.13
2023-04-16T10:07:22.022Z,8.07
2023-04-16T10:12:24.833Z,4.45
2023-04-16T10:17:26.629Z,12.30
2023-04-16T10:22:29.197Z,10.65
2023-04-16T10:27:31.699Z,9.37
2023-04-16T10:32:33.147Z,17.52
2023-04-16T10:37:33.561Z,9.30
2023-04-16T10:42:33.796Z,11.35
2023-04-16T10:47:33.098Z,14.30
2023-04-16T10:52:34.747Z,10.25
2023-04-16T10:57:38.064Z,14.70
2023-04-16T11:02:44.287Z,11.75
2023-04-16T11:07:49.743Z,14.77
2023-04-16T11:12:49.181Z,12.18
2023-04-16T11:17:48.867Z,10.25
2023-04-16T11:22:47.303Z,13.23
2023-04-16T11:27:48.441Z,11.52
2023-04-16T11:32:49.414Z,14.98
2023-04-16T11:37:51.178Z,9.25
2023-04-16T11:42:49.983Z,8.23
2023-04-16T11:47:55.679Z,7.07
2023-04-16T11:53:02.278Z,11.73
2023-04-16T11:58:24.339Z,3.95
2023-04-16T12:03:47.181Z,6.82
2023-04-16T12:08:46.972Z,7.80
2023-04-16T12:14:10.276Z,5.70
2023-04-16T12:19:17.584Z,2.55
2023-04-16T12:24:21.220Z,7.80
2023-04-16T12:29:32.098Z,3.47
2023-04-16T12:34:48.354Z,3.75
2023-04-16T12:40:06.853Z,2.83
2023-04-16T12:45:09.580Z,2.30
2023-04-16T12:50:12.379Z,3.97
2023-04-16T12:55:21.461Z,3.65
2023-04-16T13:00:28.485Z,3.97
2023-04-16T13:05:29.059Z,6.45
2023-04-16T13:10:37.704Z,6.55
2023-04-16T13:15:41.214Z,4.65
2023-04-16T13:21:01.800Z,1.80
2023-04-16T13:26:01.973Z,2.80
2023-04-16T13:31:08.456Z,8.38
2023-04-16T13:36:27.538Z,6.78
2023-04-16T13:41:32.600Z,5.70
2023-04-16T13:46:36.111Z,2.63
2023-04-16T13:51:37.668Z,5.90
2023-04-16T13:56:38.446Z,8.32
2023-04-16T14:01:40.496Z,6.20
2023-04-16T14:06:39.822Z,6.07
2023-04-16T14:11:40.700Z,3.05
2023-04-16T14:16:42.253Z,6.25
2023-04-16T14:22:05.796Z,3.17
2023-04-16T14:27:06.453Z,5.80
2023-04-16T14:32:10.840Z,6.47
2023-04-16T14:37:15.186Z,10.15
2023-04-16T14:42:14.796Z,3.90
2023-04-16T14:47:17.994Z,5.82
2023-04-16T14:52:24.530Z,3.75
2023-04-16T14:57:25.821Z,4.38
2023-04-16T15:02:32.138Z,6.25
2023-04-16T15:07:40.834Z,5.53
2023-04-16T15:12:46.560Z,6.15
2023-04-16T15:17:54.679Z,5.05
2023-04-16T15:23:04.855Z,4.88
2023-04-16T15:28:06.888Z,3.97
2023-04-16T15:33:06.010Z,3.30
2023-04-16T15:38:12.631Z,7.28
2023-04-16T15:43:13.037Z,9.88
2023-04-16T15:48:15.824Z,2.63
2023-04-16T15:53:17.517Z,5.90
2023-04-16T15:58:19.335Z,5.93
2023-04-16T16:03:23.053Z,7.68
2023-04-16T16:13:43.987Z,6.82
2023-04-16T16:18:53.866Z,4.30
2023-04-16T16:23:58.239Z,14.57
2023-04-16T16:29:11.334Z,11.35
2023-04-16T16:34:19.711Z,12.10
2023-04-16T16:39:38.435Z,7.72
2023-04-16T16:44:41.272Z,5.90
2023-04-16T16:50:11.102Z,7.93
2023-04-16T16:55:22.146Z,7.88
2023-04-16T17:00:36.820Z,7.85
2023-04-16T17:05:56.111Z,4.68
2023-04-16T17:10:57.735Z,5.70
2023-04-16T17:15:57.611Z,6.07
2023-04-16T17:20:58.633Z,8.43
2023-04-16T17:26:17.903Z,10.15
2023-04-16T17:31:26.225Z,9.25
2023-04-16T17:36:33.309Z,12.98
2023-04-16T17:41:48.621Z,13.23
2023-04-16T17:46:50.247Z,10.85
2023-04-16T17:51:49.420Z,15.85
2023-04-16T17:56:48.589Z,15.27
2023-04-16T18:01:49.889Z,11.48
2023-04-16T18:06:54.421Z,9.20
2023-04-16T18:11:53.973Z,10.23
2023-04-16T18:17:01.122Z,9.20
2023-04-16T18:22:04.950Z,20.45
2023-04-16T18:27:07.702Z,9.25
2023-04-16T18:32:11.953Z,10.30
2023-04-16T18:37:13.359Z,17.13
2023-04-16T18:42:18.023Z,11.67
2023-04-16T18:47:21.424Z,10.98
2023-04-16T18:52:24.939Z,10.02
2023-04-16T18:57:24.688Z,14.02
2023-04-16T19:02:26.897Z,15.43
2023-04-16T19:07:26.420Z,15.48
2023-04-16T19:12:30.602Z,11.85
2023-04-16T19:17:29.304Z,15.25
2023-04-16T19:22:32.636Z,14.00
2023-04-16T19:27:35.079Z,16.70
2023-04-16T19:32:40.932Z,14.27
2023-04-16T19:37:40.069Z,17.30
2023-04-16T19:42:41.702Z,18.25
2023-04-16T19:47:41.090Z,18.35
2023-04-16T19:52:42.877Z,18.75
2023-04-16T19:57:44.078Z,19.08
2023-04-16T20:02:53.123Z,17.25
2023-04-16T20:07:57.546Z,19.55
2023-04-16T20:13:02.666Z,28.40
2023-04-16T20:18:06.356Z,23.90
2023-04-16T20:23:21.908Z,22.92
2023-04-16T20:28:22.814Z,17.33
2023-04-16T20:33:27.561Z,19.42
2023-04-16T20:38:25.884Z,27.10
2023-04-16T20:43:29.826Z,23.10
2023-04-16T20:48:35.024Z,19.13
2023-04-16T21:04:18.784Z,16.88
2023-04-16T21:09:20.269Z,21.27
2023-04-16T21:14:25.944Z,20.13
2023-04-16T21:19:25.640Z,18.95
2023-04-16T21:24:24.601Z,18.65
2023-04-16T21:29:29.100Z,21.85
2023-04-16T21:34:28.769Z,18.08
2023-04-16T21:39:32.666Z,21.35
2023-04-16T21:49:48.696Z,19.27
2023-04-16T21:54:50.176Z,19.95
2023-04-16T21:59:51.145Z,24.90
2023-04-16T22:04:49.025Z,25.08
2023-04-16T22:09:53.845Z,28.85
2023-04-16T22:15:02.875Z,26.92
2023-04-16T22:20:07.640Z,28.40
2023-04-16T22:25:07.153Z,32.90
2023-04-16T22:30:18.636Z,34.22
2023-04-16T22:35:21.283Z,40.47
2023-04-16T22:40:20.466Z,31.35
2023-04-16T22:45:19.930Z,35.42
2023-04-16T22:50:22.755Z,30.70
2023-04-16T22:55:22.055Z,28.73
2023-04-16T23:00:35.136Z,32.50
2023-04-16T23:05:35.207Z,30.73
2023-04-16T23:10:36.761Z,35.78
2023-04-16T23:15:35.793Z,37.13
2023-04-16T23:20:36.480Z,30.58
2023-04-16T23:25:36.682Z,24.77
2023-04-16T23:30:38.364Z,26.77
2023-04-16T23:35:40.821Z,22.95
2023-04-16T23:40:42.449Z,23.40
2023-04-16T23:45:43.537Z,30.58
2023-04-16T23:50:42.444Z,24.80
2023-04-16T23:55:42.082Z,28.58
